Time;durP1;ratioP1;P1;durP2;ratioP2;P2;SDS_P1;SDS_P2;PMS_P1;PMS_P2;Temp;Humidity;BMP_temperature;BMP_pressure;BME280_temperature;BME280_humidity;BME280_pressure;Samples;Min_cycle;Max_cycle;Signal;HPM_P1;HPM_P2
2022/03/02 00:01:49;;;;;;;37.50;25.33;;;6.10;99.90;;;;;;5049885;28;20441;-76
2022/03/02 00:04:15;;;;;;;38.03;25.33;;;6.10;99.90;;;;;;5053496;28;20041;-75
2022/03/02 00:06:40;;;;;;;37.50;25.53;;;6.10;99.90;;;;;;5058903;28;20045;-75
2022/03/02 00:09:08;;;;;;;37.90;24.53;;;6.10;99.90;;;;;;5070350;28;20862;-76
2022/03/02 00:11:34;;;;;;;37.27;24.77;;;6.10;99.90;;;;;;5066961;28;20098;-76
2022/03/02 00:14:00;;;;;;;40.47;26.40;;;6.10;99.90;;;;;;5057210;28;20039;-76
2022/03/02 00:16:26;;;;;;;37.90;25.77;;;6.10;99.90;;;;;;5063767;28;20044;-75
2022/03/02 00:18:52;;;;;;;37.10;24.83;;;6.10;99.90;;;;;;5054889;28;20064;-76
2022/03/02 00:21:18;;;;;;;37.37;25.57;;;6.10;99.90;;;;;;5070039;28;20076;-75
2022/03/02 00:23:44;;;;;;;38.63;25.33;;;6.10;99.90;;;;;;5062633;28;20045;-76
2022/03/02 00:26:11;;;;;;;39.13;25.83;;;6.10;99.90;;;;;;5053360;28;20049;-76
2022/03/02 00:28:37;;;;;;;40.80;25.57;;;6.10;99.90;;;;;;5060710;28;20405;-76
2022/03/02 00:31:02;;;;;;;36.87;25.47;;;6.10;99.90;;;;;;5049360;28;20051;-77
2022/03/02 00:33:28;;;;;;;39.63;25.83;;;6.10;99.90;;;;;;5067236;28;20044;-77
2022/03/02 00:35:54;;;;;;;37.27;25.87;;;6.10;99.90;;;;;;5068566;28;20495;-77
2022/03/02 00:38:19;;;;;;;42.83;25.43;;;6.00;99.90;;;;;;5081376;28;20040;-76
2022/03/02 00:40:45;;;;;;;37.80;26.17;;;6.00;99.90;;;;;;5045546;28;20122;-76
2022/03/02 00:43:12;;;;;;;36.63;25.03;;;6.00;99.90;;;;;;5081874;28;20044;-76
2022/03/02 00:45:38;;;;;;;37.37;24.80;;;6.00;99.90;;;;;;5064579;28;20049;-76
2022/03/02 00:48:06;;;;;;;38.13;25.33;;;6.00;99.90;;;;;;5080473;28;20080;-76
2022/03/02 00:50:32;;;;;;;37.73;26.13;;;5.90;99.90;;;;;;5026664;28;20072;-76
2022/03/02 00:52:59;;;;;;;43.47;26.53;;;5.90;99.90;;;;;;5056469;28;20072;-75
2022/03/02 00:55:25;;;;;;;37.97;25.67;;;5.90;99.90;;;;;;5056450;28;20124;-76
2022/03/02 00:57:51;;;;;;;35.60;25.07;;;5.90;99.90;;;;;;5037485;28;20036;-76
2022/03/02 01:00:18;;;;;;;40.10;26.23;;;5.90;99.90;;;;;;5038270;28;20086;-77
2022/03/02 01:02:46;;;;;;;36.77;25.37;;;5.90;99.90;;;;;;5062409;28;20044;-78
2022/03/02 01:05:12;;;;;;;40.90;26.27;;;5.90;99.90;;;;;;5086395;28;20127;-77
2022/03/02 01:07:38;;;;;;;39.70;27.60;;;5.80;99.90;;;;;;5059358;28;20124;-77
2022/03/02 01:10:06;;;;;;;41.53;26.67;;;5.80;99.90;;;;;;5060581;28;20399;-77
2022/03/02 01:12:32;;;;;;;41.07;25.67;;;5.80;99.90;;;;;;5077989;28;20072;-76
2022/03/02 01:14:57;;;;;;;38.87;26.30;;;5.80;99.90;;;;;;5067173;28;20500;-76
2022/03/02 01:17:24;;;;;;;38.50;26.07;;;5.80;99.90;;;;;;5044620;28;20043;-76
2022/03/02 01:19:51;;;;;;;37.57;26.20;;;5.80;99.90;;;;;;5048894;28;20044;-76
2022/03/02 01:22:16;;;;;;;37.67;25.87;;;5.80;99.90;;;;;;5064174;28;20134;-76
2022/03/02 01:24:43;;;;;;;41.97;26.80;;;5.80;99.90;;;;;;5047639;28;20132;-76
2022/03/02 01:27:09;;;;;;;41.97;27.30;;;5.80;99.90;;;;;;5063197;28;20491;-75
2022/03/02 01:29:35;;;;;;;43.00;26.97;;;5.80;99.90;;;;;;5072203;28;20055;-76
2022/03/02 01:32:01;;;;;;;40.70;26.80;;;5.80;99.90;;;;;;5059446;28;20036;-76
2022/03/02 01:34:28;;;;;;;39.10;26.97;;;5.80;99.90;;;;;;5080024;28;20098;-76
2022/03/02 01:36:54;;;;;;;39.80;26.73;;;5.80;99.90;;;;;;5075402;28;20042;-75
2022/03/02 01:39:20;;;;;;;42.53;28.17;;;5.80;99.90;;;;;;5070306;28;20059;-75
2022/03/02 01:41:46;;;;;;;38.53;27.07;;;5.80;99.90;;;;;;5074478;28;20063;-76
2022/03/02 01:44:12;;;;;;;40.30;26.03;;;5.80;99.90;;;;;;5049198;28;20048;-76
2022/03/02 01:46:37;;;;;;;39.23;26.53;;;5.80;99.90;;;;;;5078369;28;20036;-76
2022/03/02 01:49:04;;;;;;;40.70;27.30;;;5.80;99.90;;;;;;5062681;28;20510;-75
2022/03/02 01:51:32;;;;;;;41.07;27.07;;;5.70;99.90;;;;;;5034304;28;20514;-76
2022/03/02 01:53:57;;;;;;;41.27;26.90;;;5.70;99.90;;;;;;5082431;28;20082;-76
2022/03/02 01:56:23;;;;;;;40.23;27.57;;;5.70;99.90;;;;;;5048926;28;20060;-75
2022/03/02 01:58:49;;;;;;;39.00;26.60;;;5.70;99.90;;;;;;5064527;28;20141;-76
2022/03/02 02:01:16;;;;;;;39.67;27.63;;;5.70;99.90;;;;;;5070195;28;20043;-75
2022/03/02 02:03:42;;;;;;;40.20;26.37;;;5.60;99.90;;;;;;5081143;28;20050;-76
2022/03/02 02:06:08;;;;;;;40.17;26.80;;;5.60;99.90;;;;;;5031602;28;20047;-76
2022/03/02 02:08:36;;;;;;;41.57;27.77;;;5.60;99.90;;;;;;5074424;28;20043;-76
2022/03/02 02:11:03;;;;;;;42.63;28.27;;;5.60;99.90;;;;;;5048519;28;20102;-76
2022/03/02 02:13:34;;;;;;;44.97;27.93;;;5.50;99.90;;;;;;5053680;28;20078;-76
2022/03/02 02:16:02;;;;;;;40.73;27.47;;;5.50;99.90;;;;;;5068349;28;20056;-76
2022/03/02 02:18:28;;;;;;;44.50;28.33;;;5.50;99.90;;;;;;5056531;28;20035;-77
2022/03/02 02:20:55;;;;;;;39.80;27.40;;;5.40;99.90;;;;;;5055409;28;20452;-76
2022/03/02 02:23:21;;;;;;;46.50;27.87;;;5.40;99.90;;;;;;5046562;28;20049;-76
2022/03/02 02:25:46;;;;;;;42.23;27.50;;;5.40;99.90;;;;;;5056309;28;20043;-76
2022/03/02 02:28:17;;;;;;;43.20;27.60;;;5.40;99.90;;;;;;5037720;28;20526;-76
2022/03/02 02:30:44;;;;;;;43.87;27.83;;;5.40;99.90;;;;;;5060352;28;20051;-76
2022/03/02 02:33:12;;;;;;;41.30;27.93;;;5.40;99.90;;;;;;5062014;28;20047;-76
2022/03/02 02:35:37;;;;;;;39.53;26.07;;;5.40;99.90;;;;;;5064392;28;20036;-76
2022/03/02 02:38:05;;;;;;;43.50;26.63;;;5.30;99.90;;;;;;5055046;28;20067;-76
2022/03/02 02:40:32;;;;;;;39.73;26.37;;;5.30;99.90;;;;;;5058584;28;20056;-76
2022/03/02 02:42:57;;;;;;;41.57;27.53;;;5.30;99.90;;;;;;5065224;28;20525;-76
2022/03/02 02:45:24;;;;;;;41.20;26.77;;;5.30;99.90;;;;;;5039448;28;20118;-77
2022/03/02 02:47:55;;;;;;;45.20;27.77;;;5.30;99.90;;;;;;5057248;28;20127;-77
2022/03/02 02:50:23;;;;;;;42.90;28.00;;;5.20;99.90;;;;;;5047188;28;20047;-77
2022/03/02 02:52:50;;;;;;;44.60;27.67;;;5.20;99.90;;;;;;5065663;28;20040;-77
2022/03/02 02:55:17;;;;;;;41.07;28.27;;;5.20;99.90;;;;;;5054366;28;20047;-78
2022/03/02 02:57:44;;;;;;;41.10;28.37;;;5.30;99.90;;;;;;5050718;28;20033;-77
2022/03/02 03:00:12;;;;;;;42.97;28.53;;;5.30;99.90;;;;;;5073854;28;20045;-77
2022/03/02 03:02:38;;;;;;;45.63;29.93;;;5.30;99.90;;;;;;5075045;28;20472;-77
2022/03/02 03:05:04;;;;;;;47.33;29.27;;;5.30;99.90;;;;;;5058029;28;20083;-77
2022/03/02 03:07:30;;;;;;;44.23;30.03;;;5.30;99.90;;;;;;5075047;28;20072;-76
2022/03/02 03:09:56;;;;;;;44.63;29.17;;;5.30;99.90;;;;;;5060915;28;20094;-76
2022/03/02 03:12:23;;;;;;;47.10;28.90;;;5.20;99.90;;;;;;5075857;28;20044;-76
2022/03/02 03:14:48;;;;;;;45.37;29.97;;;5.30;99.90;;;;;;5067438;28;20040;-76
2022/03/02 03:17:14;;;;;;;48.83;30.33;;;5.30;99.90;;;;;;5063117;28;20051;-76
2022/03/02 03:19:40;;;;;;;47.30;29.77;;;5.30;99.90;;;;;;5076382;28;20041;-76
2022/03/02 03:22:06;;;;;;;46.17;29.43;;;5.20;99.90;;;;;;5062632;28;20135;-76
2022/03/02 03:24:32;;;;;;;48.87;30.87;;;5.20;99.90;;;;;;5076184;28;20129;-76
2022/03/02 03:26:58;;;;;;;48.67;30.50;;;5.20;99.90;;;;;;5054666;28;20082;-77
2022/03/02 03:29:25;;;;;;;50.83;31.67;;;5.20;99.90;;;;;;5060734;28;20450;-76
2022/03/02 03:31:50;;;;;;;49.77;31.20;;;5.20;99.90;;;;;;5078013;28;20048;-76
2022/03/02 03:34:16;;;;;;;48.43;30.13;;;5.20;99.90;;;;;;5063398;28;20517;-76
2022/03/02 03:36:42;;;;;;;45.07;29.93;;;5.10;99.90;;;;;;5067543;28;20035;-77
2022/03/02 03:39:08;;;;;;;47.70;30.23;;;5.10;99.90;;;;;;5044743;28;20388;-77
2022/03/02 03:41:34;;;;;;;50.30;31.20;;;5.10;99.90;;;;;;5063315;28;20450;-77
2022/03/02 03:44:00;;;;;;;49.70;31.63;;;5.10;99.90;;;;;;5067839;28;20046;-77
2022/03/02 03:46:27;;;;;;;55.23;32.30;;;5.00;99.90;;;;;;5054105;28;20048;-77
2022/03/02 03:48:53;;;;;;;50.80;31.57;;;5.00;99.90;;;;;;5066294;28;20091;-77
2022/03/02 03:51:19;;;;;;;51.47;31.30;;;5.00;99.90;;;;;;5075626;28;20083;-77
2022/03/02 03:53:45;;;;;;;49.07;31.73;;;5.00;99.90;;;;;;5081899;28;20513;-77
2022/03/02 03:56:11;;;;;;;49.53;30.90;;;5.00;99.90;;;;;;5087464;28;20056;-78
2022/03/02 03:58:37;;;;;;;49.33;31.37;;;5.00;99.90;;;;;;5060060;28;20546;-77
2022/03/02 04:01:03;;;;;;;50.20;30.67;;;5.00;99.90;;;;;;5078298;28;20086;-77
2022/03/02 04:03:30;;;;;;;47.93;30.27;;;5.00;99.90;;;;;;5050458;28;20067;-77
2022/03/02 04:05:56;;;;;;;47.50;30.33;;;5.00;99.90;;;;;;5085984;28;20503;-77
2022/03/02 04:08:22;;;;;;;52.17;32.40;;;5.00;99.90;;;;;;5077990;28;20086;-77
2022/03/02 04:10:49;;;;;;;48.23;31.03;;;5.00;99.90;;;;;;5036899;28;20041;-77
2022/03/02 04:13:15;;;;;;;49.10;30.00;;;5.00;99.90;;;;;;5068477;28;20080;-77
2022/03/02 04:15:40;;;;;;;52.93;30.87;;;5.00;99.90;;;;;;5035323;28;20047;-76
2022/03/02 04:18:07;;;;;;;49.73;30.93;;;5.00;99.90;;;;;;5074137;28;20032;-77
2022/03/02 04:20:34;;;;;;;49.07;31.83;;;5.00;99.90;;;;;;5065569;28;20064;-77
2022/03/02 04:23:00;;;;;;;47.30;31.20;;;4.90;99.90;;;;;;5065023;28;20047;-76
2022/03/02 04:25:26;;;;;;;52.13;31.77;;;4.90;99.90;;;;;;5047896;28;20044;-76
2022/03/02 04:27:51;;;;;;;51.63;31.37;;;4.90;99.90;;;;;;5043001;28;20094;-75
2022/03/02 04:30:17;;;;;;;53.03;33.47;;;4.90;99.90;;;;;;5067815;28;20048;-76
2022/03/02 04:32:43;;;;;;;48.80;30.37;;;4.90;99.90;;;;;;5045346;28;20090;-76
2022/03/02 04:35:11;;;;;;;51.07;31.63;;;4.90;99.90;;;;;;5071918;28;20621;-75
2022/03/02 04:37:39;;;;;;;50.50;31.93;;;4.90;99.90;;;;;;5079500;28;20101;-76
2022/03/02 04:40:08;;;;;;;51.30;31.27;;;4.90;99.90;;;;;;5071539;28;20064;-75
2022/03/02 04:42:34;;;;;;;48.23;31.43;;;4.90;99.90;;;;;;5040502;28;20044;-77
2022/03/02 04:45:00;;;;;;;51.97;32.53;;;4.80;99.90;;;;;;5058246;28;20041;-76
2022/03/02 04:47:25;;;;;;;49.73;30.97;;;4.80;99.90;;;;;;5042038;28;20047;-76
2022/03/02 04:49:51;;;;;;;50.00;32.10;;;4.80;99.90;;;;;;5032377;28;20080;-76
2022/03/02 04:52:17;;;;;;;53.20;33.90;;;4.80;99.90;;;;;;5072654;28;20039;-76
2022/03/02 04:55:05;;;;;;;57.40;32.93;;;4.70;99.90;;;;;;5070890;28;20041;-75
2022/03/02 04:57:31;;;;;;;51.80;32.30;;;4.80;99.90;;;;;;5062274;28;20049;-75
2022/03/02 04:59:57;;;;;;;52.63;33.20;;;4.70;99.90;;;;;;5075619;28;20637;-75
2022/03/02 05:02:23;;;;;;;51.93;32.37;;;4.70;99.90;;;;;;5053640;28;20122;-76
2022/03/02 05:04:49;;;;;;;51.57;31.57;;;4.70;99.90;;;;;;5058372;28;20528;-75
2022/03/02 05:07:15;;;;;;;50.70;33.07;;;4.70;99.90;;;;;;5070401;28;20455;-76
2022/03/02 05:09:41;;;;;;;53.27;32.13;;;4.60;99.90;;;;;;5078013;28;20119;-76
2022/03/02 05:12:09;;;;;;;51.37;33.10;;;4.60;99.90;;;;;;5082658;28;20095;-80
2022/03/02 05:14:36;;;;;;;55.13;33.33;;;4.60;99.90;;;;;;5058517;28;20044;-79
2022/03/02 05:17:02;;;;;;;53.73;33.00;;;4.60;99.90;;;;;;5065619;28;20095;-78
2022/03/02 05:19:28;;;;;;;54.10;34.27;;;4.50;99.90;;;;;;5072999;28;20048;-79
2022/03/02 05:21:54;;;;;;;54.27;33.83;;;4.60;99.90;;;;;;5083504;28;20040;-78
2022/03/02 05:24:20;;;;;;;53.13;32.80;;;4.50;99.90;;;;;;5076579;28;20052;-78
2022/03/02 05:26:45;;;;;;;53.23;32.20;;;4.50;99.90;;;;;;5056797;28;20072;-80
2022/03/02 05:29:13;;;;;;;52.03;33.27;;;4.50;99.90;;;;;;5059512;28;20060;-79
2022/03/02 05:31:38;;;;;;;53.43;32.90;;;4.50;99.90;;;;;;5062255;28;20131;-79
2022/03/02 05:34:04;;;;;;;50.23;32.47;;;4.50;99.90;;;;;;5058384;28;20055;-78
2022/03/02 05:36:30;;;;;;;55.33;32.57;;;4.40;99.90;;;;;;5096332;28;20044;-79
2022/03/02 05:38:55;;;;;;;55.47;33.97;;;4.40;99.90;;;;;;5085258;28;20056;-79
2022/03/02 05:41:21;;;;;;;53.53;32.67;;;4.40;99.90;;;;;;5093404;28;20097;-79
2022/03/02 05:43:48;;;;;;;51.97;32.40;;;4.40;99.90;;;;;;5093501;28;20108;-79
2022/03/02 05:46:15;;;;;;;53.77;33.03;;;4.40;99.90;;;;;;5078943;28;20040;-80
2022/03/02 05:48:40;;;;;;;52.87;31.87;;;4.30;99.90;;;;;;5068092;28;20118;-83
2022/03/02 05:51:06;;;;;;;56.00;33.70;;;4.40;99.90;;;;;;5061109;28;20037;-79
2022/03/02 05:53:32;;;;;;;52.17;32.67;;;4.30;99.90;;;;;;5092038;28;20048;-78
2022/03/02 05:55:58;;;;;;;58.37;32.73;;;4.30;99.90;;;;;;5085511;28;20100;-82
2022/03/02 05:58:25;;;;;;;54.17;33.00;;;4.30;99.90;;;;;;5094323;28;20419;-79
2022/03/02 06:00:51;;;;;;;51.53;32.60;;;4.20;99.90;;;;;;5088644;28;20055;-78
2022/03/02 06:03:20;;;;;;;50.83;31.30;;;4.20;99.90;;;;;;5099199;28;20127;-78
2022/03/02 06:05:46;;;;;;;53.47;32.17;;;4.10;99.90;;;;;;5066545;28;20055;-79
2022/03/02 06:08:12;;;;;;;57.37;33.90;;;4.10;99.90;;;;;;5057773;28;20045;-80
2022/03/02 06:10:38;;;;;;;57.53;33.53;;;4.00;99.90;;;;;;5087849;28;20040;-78
2022/03/02 06:13:04;;;;;;;51.63;33.47;;;3.90;99.90;;;;;;5089416;28;20044;-80
2022/03/02 06:15:31;;;;;;;55.70;32.87;;;3.80;99.90;;;;;;5104206;28;20040;-80
2022/03/02 06:18:01;;;;;;;59.13;33.93;;;3.70;99.90;;;;;;5081971;28;20049;-79
2022/03/02 06:20:29;;;;;;;62.47;35.10;;;3.70;99.90;;;;;;5065644;28;20410;-81
2022/03/02 06:22:55;;;;;;;57.00;34.73;;;3.60;99.90;;;;;;5084279;28;20122;-78
2022/03/02 06:25:21;;;;;;;61.17;35.63;;;3.50;99.90;;;;;;5085549;28;20051;-78
2022/03/02 06:27:47;;;;;;;55.93;34.00;;;3.50;99.90;;;;;;5087414;28;20040;-78
2022/03/02 06:30:13;;;;;;;57.40;32.80;;;3.40;99.90;;;;;;5081207;28;20044;-79
2022/03/02 06:32:39;;;;;;;56.10;33.80;;;3.40;99.90;;;;;;5084225;28;20519;-79
2022/03/02 06:35:06;;;;;;;57.83;32.93;;;3.30;99.90;;;;;;5102280;28;20044;-79
2022/03/02 06:37:33;;;;;;;61.03;33.97;;;3.30;99.90;;;;;;5093546;28;20116;-78
2022/03/02 06:40:00;;;;;;;53.80;33.10;;;3.20;99.90;;;;;;5057074;28;20045;-78
2022/03/02 06:42:32;;;;;;;56.20;34.97;;;3.20;99.90;;;;;;5087988;28;20087;-78
2022/03/02 06:45:04;;;;;;;59.23;34.47;;;3.20;99.90;;;;;;5096075;28;20048;-78
2022/03/02 06:47:40;;;;;;;54.57;34.70;;;3.10;99.90;;;;;;5080174;28;20072;-78
2022/03/02 06:50:09;;;;;;;58.93;35.27;;;3.10;99.90;;;;;;5039689;28;20056;-78
2022/03/02 06:52:39;;;;;;;57.87;34.27;;;3.10;99.90;;;;;;5091103;28;20092;-79
2022/03/02 06:55:07;;;;;;;58.30;34.33;;;3.00;99.90;;;;;;5099038;28;20395;-81
2022/03/02 06:57:33;;;;;;;60.47;35.10;;;3.00;99.90;;;;;;5084577;28;20306;-80
2022/03/02 07:00:04;;;;;;;62.93;35.30;;;3.10;99.90;;;;;;5065215;28;20303;-80
2022/03/02 07:02:38;;;;;;;55.90;32.90;;;3.10;99.90;;;;;;5066717;28;20394;-78
2022/03/02 07:05:05;;;;;;;56.15;34.30;;;3.10;99.90;;;;;;5073285;28;20325;-79
2022/03/02 07:07:36;;;;;;;58.93;32.73;;;3.00;99.90;;;;;;5073701;28;20045;-80
2022/03/02 07:10:03;;;;;;;58.53;32.87;;;3.10;99.90;;;;;;5077588;28;20317;-80
2022/03/02 07:12:29;;;;;;;57.67;34.60;;;3.10;99.90;;;;;;5065979;28;20301;-80
2022/03/02 07:14:55;;;;;;;55.87;34.37;;;3.10;99.90;;;;;;5075102;28;20323;-80
2022/03/02 07:17:22;;;;;;;58.33;35.47;;;3.20;99.90;;;;;;5087839;28;20044;-78
2022/03/02 07:19:48;;;;;;;54.93;34.27;;;3.20;99.90;;;;;;5084840;28;20044;-80
2022/03/02 07:22:17;;;;;;;59.83;35.33;;;3.20;99.90;;;;;;5083958;28;20313;-79
2022/03/02 07:24:52;;;;;;;59.23;33.90;;;3.20;99.90;;;;;;5105089;28;20088;-78
2022/03/02 07:27:18;;;;;;;53.13;32.33;;;3.30;99.90;;;;;;5091543;28;20373;-79
2022/03/02 07:29:48;;;;;;;57.93;33.83;;;3.30;99.90;;;;;;5051486;28;20354;-82
2022/03/02 07:32:17;;;;;;;56.53;34.33;;;3.30;99.90;;;;;;5052223;28;20634;-81
2022/03/02 07:34:43;;;;;;;54.87;33.60;;;3.40;99.90;;;;;;5076774;28;20324;-80
2022/03/02 07:37:09;;;;;;;53.47;32.77;;;3.90;99.90;;;;;;5070554;28;20560;-80
2022/03/02 07:39:35;;;;;;;52.00;33.47;;;4.60;99.90;;;;;;5061912;28;20341;-80
2022/03/02 07:42:03;;;;;;;51.10;30.30;;;5.50;99.90;;;;;;5087307;28;20079;-78
2022/03/02 07:44:29;;;;;;;48.10;31.10;;;6.50;99.90;;;;;;5094463;28;20052;-79
2022/03/02 07:46:54;;;;;;;49.27;29.07;;;7.20;99.90;;;;;;5105111;28;20488;-80
2022/03/02 07:49:20;;;;;;;46.13;30.63;;;7.80;99.90;;;;;;5100767;28;20059;-79
2022/03/02 07:51:50;;;;;;;42.17;28.10;;;8.10;99.90;;;;;;5099424;28;20043;-78
2022/03/02 07:54:19;;;;;;;42.80;28.30;;;8.50;99.90;;;;;;5078749;28;20053;-79
2022/03/02 07:56:46;;;;;;;40.33;28.33;;;8.60;99.90;;;;;;5056710;28;20047;-80
2022/03/02 07:59:16;;;;;;;44.07;27.93;;;8.40;99.90;;;;;;5075633;28;20110;-79
2022/03/02 08:01:42;;;;;;;43.47;27.77;;;8.20;99.90;;;;;;5069507;28;20056;-81
2022/03/02 08:04:09;;;;;;;42.40;27.40;;;8.00;99.90;;;;;;5080386;28;20046;-80
2022/03/02 08:06:37;;;;;;;45.73;27.67;;;7.90;99.90;;;;;;5046477;28;20044;-80
2022/03/02 08:09:07;;;;;;;43.47;27.63;;;7.60;99.90;;;;;;5086559;28;20055;-79
2022/03/02 08:11:37;;;;;;;41.40;27.73;;;7.40;99.90;;;;;;5082515;28;20047;-79
2022/03/02 08:14:03;;;;;;;40.07;26.00;;;7.30;99.90;;;;;;5093655;28;20637;-79
2022/03/02 08:16:32;;;;;;;40.63;26.27;;;7.30;99.90;;;;;;5068860;28;20037;-80
2022/03/02 08:19:01;;;;;;;42.03;26.10;;;7.10;99.90;;;;;;5079593;28;20071;-79
2022/03/02 08:21:29;;;;;;;43.03;27.70;;;7.00;99.90;;;;;;5063860;28;20044;-78
2022/03/02 08:23:56;;;;;;;40.37;26.03;;;7.00;99.90;;;;;;5064344;28;20055;-79
2022/03/02 08:26:23;;;;;;;40.93;26.50;;;6.90;99.90;;;;;;5075805;28;20040;-80
2022/03/02 08:28:52;;;;;;;41.27;27.50;;;6.80;99.90;;;;;;5082367;28;20078;-79
2022/03/02 08:31:19;;;;;;;41.80;26.53;;;6.80;99.90;;;;;;5057614;28;20048;-80
2022/03/02 08:33:46;;;;;;;42.87;25.77;;;6.80;99.90;;;;;;5043939;28;20041;-79
2022/03/02 08:36:15;;;;;;;35.57;25.03;;;6.80;99.90;;;;;;5073677;28;20060;-78
2022/03/02 08:38:42;;;;;;;37.00;24.50;;;6.80;99.90;;;;;;5048084;28;20066;-78
2022/03/02 08:41:10;;;;;;;41.17;24.23;;;6.90;99.90;;;;;;5074379;28;20040;-81
2022/03/02 08:43:36;;;;;;;35.53;23.43;;;6.90;99.90;;;;;;5079055;28;20074;-80
2022/03/02 08:46:03;;;;;;;36.87;23.80;;;6.90;99.90;;;;;;5100558;28;20092;-80
2022/03/02 08:48:29;;;;;;;37.93;24.03;;;6.90;99.90;;;;;;5080753;28;20473;-79
2022/03/02 08:50:59;;;;;;;39.83;24.67;;;6.90;99.90;;;;;;5058601;28;20099;-80
2022/03/02 08:53:26;;;;;;;37.90;24.93;;;7.10;99.90;;;;;;5055638;28;20055;-80
2022/03/02 08:55:53;;;;;;;37.10;25.03;;;7.30;99.90;;;;;;5058274;28;20075;-79
2022/03/02 08:58:19;;;;;;;39.07;24.60;;;7.50;99.90;;;;;;5065038;28;20035;-78
2022/03/02 09:00:45;;;;;;;39.10;24.07;;;7.70;99.90;;;;;;5067719;28;20544;-79
2022/03/02 09:03:15;;;;;;;35.57;22.47;;;7.90;99.90;;;;;;5080627;28;20044;-79
2022/03/02 09:05:41;;;;;;;35.63;23.77;;;8.10;99.90;;;;;;5074298;28;20055;-80
2022/03/02 09:08:08;;;;;;;36.67;23.50;;;8.20;99.90;;;;;;5048825;28;20048;-80
2022/03/02 09:10:35;;;;;;;32.90;22.47;;;8.40;99.90;;;;;;5061595;28;20074;-78
2022/03/02 09:13:02;;;;;;;34.10;23.23;;;8.60;99.90;;;;;;5062618;28;20039;-79
2022/03/02 09:15:28;;;;;;;35.27;22.73;;;8.80;99.90;;;;;;5060671;28;20509;-80
2022/03/02 09:17:54;;;;;;;32.03;22.77;;;9.00;99.90;;;;;;5064613;28;20044;-79
2022/03/02 09:20:20;;;;;;;34.37;21.93;;;9.20;99.90;;;;;;5058427;28;20048;-79
2022/03/02 09:22:46;;;;;;;31.63;22.50;;;9.30;99.90;;;;;;5063642;28;20044;-79
2022/03/02 09:25:13;;;;;;;31.63;21.03;;;9.60;99.90;;;;;;5053565;28;20039;-79
2022/03/02 09:27:40;;;;;;;33.07;21.43;;;10.10;99.90;;;;;;5061945;28;20526;-82
2022/03/02 09:30:08;;;;;;;30.57;21.40;;;10.80;99.90;;;;;;5082407;28;20076;-79
2022/03/02 09:32:37;;;;;;;29.23;21.00;;;11.60;99.90;;;;;;5046730;28;20051;-81
2022/03/02 09:35:03;;;;;;;31.43;21.73;;;12.60;99.90;;;;;;5040615;28;20051;-81
2022/03/02 09:37:35;;;;;;;28.57;20.73;;;13.40;99.90;;;;;;5061788;28;20050;-80
2022/03/02 09:40:03;;;;;;;27.00;20.27;;;14.50;99.90;;;;;;5067835;28;20052;-81
2022/03/02 09:42:39;;;;;;;29.13;20.30;;;15.70;99.90;;;;;;5061224;28;20095;-80
2022/03/02 09:45:08;;;;;;;24.73;19.10;;;16.60;91.90;;;;;;5063197;28;20051;-81
2022/03/02 09:47:42;;;;;;;24.83;20.13;;;16.90;81.20;;;;;;5045669;28;20044;-81
2022/03/02 09:50:09;;;;;;;23.77;18.95;;;17.30;82.50;;;;;;5079788;28;20044;-81
2022/03/02 09:52:38;;;;;;;25.50;20.13;;;17.80;77.10;;;;;;5057854;28;20488;-80
2022/03/02 09:55:09;;;;;;;25.47;19.53;;;18.40;80.90;;;;;;5062985;28;20055;-80
2022/03/02 09:57:42;;;;;;;24.73;19.03;;;19.20;69.20;;;;;;5057965;28;20106;-80
2022/03/02 10:00:09;;;;;;;23.93;18.20;;;19.40;68.20;;;;;;5047592;28;20091;-80
2022/03/02 10:02:37;;;;;;;22.20;18.33;;;20.00;67.60;;;;;;5076342;28;20075;-81
2022/03/02 10:05:06;;;;;;;24.13;19.13;;;20.50;65.40;;;;;;5045709;28;20048;-80
2022/03/02 10:07:36;;;;;;;23.63;19.27;;;20.90;59.70;;;;;;5056938;28;20044;-85
2022/03/02 10:10:07;;;;;;;21.57;17.70;;;21.60;58.70;;;;;;5074909;28;20455;-81
2022/03/02 10:12:35;;;;;;;23.20;19.17;;;22.10;57.30;;;;;;5057383;28;20044;-80
2022/03/02 10:15:07;;;;;;;21.37;17.83;;;22.30;52.70;;;;;;5086591;28;20079;-82
2022/03/02 10:17:34;;;;;;;21.90;17.70;;;22.40;51.30;;;;;;5083894;28;20036;-80
2022/03/02 10:20:04;;;;;;;20.50;17.57;;;22.40;48.10;;;;;;5071710;28;20104;-80
2022/03/02 10:22:47;;;;;;;20.60;16.97;;;22.30;48.40;;;;;;5055545;28;20086;-80
2022/03/02 10:25:14;;;;;;;19.77;17.27;;;22.60;48.40;;;;;;5062660;28;20044;-80
2022/03/02 10:27:58;;;;;;;21.27;17.87;;;23.00;48.90;;;;;;5080551;28;20067;-80
2022/03/02 10:30:29;;;;;;;;;;;22.90;45.00;;;;;;5058015;28;20078;-81
2022/03/02 10:33:08;;;;;;;19.23;16.77;;;23.10;46.90;;;;;;5092361;28;20010;-82
2022/03/02 10:35:38;;;;;;;21.08;17.05;;;23.10;44.40;;;;;;5055896;28;20044;-81
2022/03/02 10:38:06;;;;;;;19.80;17.10;;;23.20;43.80;;;;;;5071334;28;20041;-81
2022/03/02 10:40:32;;;;;;;22.70;17.75;;;23.00;42.60;;;;;;5071248;28;20040;-81
2022/03/02 10:43:03;;;;;;;21.35;17.02;;;23.40;43.00;;;;;;5073024;28;20040;-80
2022/03/02 10:45:38;;;;;;;19.63;16.88;;;23.60;42.00;;;;;;5059209;28;20040;-80
2022/03/02 10:48:12;;;;;;;18.10;16.20;;;23.40;42.40;;;;;;5073278;28;20103;-80
2022/03/02 10:50:39;;;;;;;20.73;17.25;;;23.60;42.90;;;;;;5081049;28;20036;-80
2022/03/02 10:53:07;;;;;;;20.75;18.17;;;24.10;41.10;;;;;;5053117;28;20047;-82
2022/03/02 10:55:35;;;;;;;20.38;16.40;;;24.00;41.50;;;;;;5079126;28;20040;-80
2022/03/02 10:58:02;;;;;;;20.98;17.55;;;24.40;42.10;;;;;;5050013;28;20503;-84
2022/03/02 11:00:30;;;;;;;19.45;16.90;;;24.50;39.20;;;;;;5050685;28;20044;-82
2022/03/02 11:02:57;;;;;;;20.88;17.30;;;24.50;41.50;;;;;;5060540;28;20045;-81
2022/03/02 11:05:24;;;;;;;20.98;16.60;;;24.90;41.20;;;;;;5090349;28;20357;-81
2022/03/02 11:07:51;;;;;;;19.35;17.15;;;24.60;40.10;;;;;;5050382;28;20044;-82
2022/03/02 11:10:20;;;;;;;19.30;17.10;;;24.30;37.70;;;;;;5076490;28;20044;-83
2022/03/02 11:12:48;;;;;;;21.55;17.27;;;23.90;40.30;;;;;;5075582;28;20179;-82
2022/03/02 11:15:15;;;;;;;22.60;17.88;;;23.90;40.30;;;;;;5066215;28;20122;-82
2022/03/02 11:17:54;;;;;;;22.95;17.80;;;24.10;41.00;;;;;;5062606;28;20040;-81
2022/03/02 11:20:20;;;;;;;21.10;17.58;;;24.30;39.70;;;;;;5067010;28;20070;-80
2022/03/02 11:22:51;;;;;;;22.73;17.08;;;24.20;39.20;;;;;;5061412;28;20052;-81
2022/03/02 11:25:17;;;;;;;19.85;17.05;;;24.10;40.80;;;;;;5049638;28;20070;-82
2022/03/02 11:27:43;;;;;;;20.58;18.02;;;24.30;41.00;;;;;;5066050;28;20040;-81
2022/03/02 11:30:12;;;;;;;19.60;17.50;;;24.30;40.50;;;;;;5080559;28;20075;-83
2022/03/02 11:32:40;;;;;;;22.80;16.92;;;24.30;40.20;;;;;;5084158;28;20400;-81
2022/03/02 11:35:09;;;;;;;20.55;17.48;;;23.90;39.80;;;;;;5046829;28;20041;-82
2022/03/02 11:37:36;;;;;;;23.27;18.05;;;23.70;39.50;;;;;;5064287;28;20032;-82
2022/03/02 11:40:06;;;;;;;20.83;17.20;;;23.40;39.90;;;;;;5067724;28;20055;-82
2022/03/02 11:42:34;;;;;;;22.38;17.17;;;23.30;39.90;;;;;;5064105;28;20447;-82
2022/03/02 11:45:02;;;;;;;21.83;17.95;;;23.00;39.50;;;;;;5059828;28;20419;-80
2022/03/02 11:47:33;;;;;;;21.08;17.15;;;22.90;40.70;;;;;;5046486;28;20039;-81
2022/03/02 11:49:59;;;;;;;21.13;16.75;;;22.70;40.70;;;;;;5049067;28;20044;-81
2022/03/02 11:52:28;;;;;;;20.93;17.47;;;22.50;39.30;;;;;;5062451;28;20547;-83
2022/03/02 11:54:59;;;;;;;20.63;17.67;;;22.20;39.40;;;;;;5062614;28;20089;-82
2022/03/02 11:57:27;;;;;;;21.07;18.30;;;22.20;41.20;;;;;;5060656;28;20036;-82
2022/03/02 12:00:07;;;;;;;20.20;16.80;;;22.30;40.80;;;;;;5047207;28;20522;-82
2022/03/02 12:02:43;;;;;;;22.37;17.37;;;22.30;40.10;;;;;;5081289;28;20040;-82
2022/03/02 12:05:10;;;;;;;21.50;18.00;;;22.00;39.90;;;;;;5064777;28;20526;-82
2022/03/02 12:07:38;;;;;;;23.70;17.83;;;21.60;40.60;;;;;;5068507;28;20036;-82
2022/03/02 12:10:15;;;;;;;20.57;17.47;;;21.60;41.00;;;;;;5074637;28;20075;-81
2022/03/02 12:12:41;;;;;;;24.30;17.13;;;21.20;39.10;;;;;;5063404;28;20040;-81
2022/03/02 12:15:08;;;;;;;22.87;17.80;;;20.40;37.80;;;;;;5060725;28;20044;-80
2022/03/02 12:17:36;;;;;;;20.70;16.27;;;19.40;39.20;;;;;;5050165;28;20577;-83
2022/03/02 12:20:05;;;;;;;21.07;16.90;;;18.80;41.90;;;;;;5060072;28;20040;-81
2022/03/02 12:22:36;;;;;;;21.93;16.57;;;18.50;42.80;;;;;;5061820;28;20046;-81
2022/03/02 12:25:05;;;;;;;21.17;17.47;;;18.40;42.00;;;;;;5080711;28;20036;-80
2022/03/02 12:27:31;;;;;;;21.90;17.23;;;18.40;42.30;;;;;;5082846;28;20507;-82
2022/03/02 12:30:04;;;;;;;24.43;17.60;;;18.10;41.50;;;;;;5102074;28;20059;-82
2022/03/02 12:32:31;;;;;;;23.60;17.33;;;18.20;43.70;;;;;;5041223;28;20075;-81
2022/03/02 12:34:58;;;;;;;21.93;17.43;;;18.60;43.20;;;;;;5052090;28;20067;-81
2022/03/02 12:37:25;;;;;;;24.10;17.80;;;18.60;41.60;;;;;;5053249;28;20554;-81